Impacts TAF Board
For situational awareness. Not to be used for flight planning purposes.
IDs:

KBWI - Baltimore-Washington, MD, US

Issued at 0524 UTC 03 Jul 2022
Updated at 0544 UTC 03 Jul 2022
Potential Impact None Slight Moderate High
Time0454Z 03/06Z 03/07Z 03/08Z 03/09Z 03/10Z 03/11Z 03/12Z 03/13Z 03/14Z 03/15Z 03/16Z 03/17Z 03/18Z>>
Type OBS PRVL PRVL
  [TEMP]  
PRVL
  [TEMP]  
PRVL
  [TEMP]  
PRVL PRVL PRVL PRVL PRVL PRVL PRVL PRVL PRVL
VIS 6 >6 >6
  [5]  
>6
  [5]  
>6
  [5]  
>6 >6 >6 >6 >6 >6 >6 >6 >6
CIG 140 50 50
  [50]  
50
  [50]  
50
  [50]  
50 130 130 80 80 80 80 80 80
Cover BKN BKN BKN
  [BKN]  
BKN
  [BKN]  
BKN
  [BKN]  
BKN BKN BKN BKN BKN BKN BKN BKN BKN
FltCat VFR VFR VFR
  [MVFR]  
VFR
  [MVFR]  
VFR
  [MVFR]  
VFR VFR VFR VFR VFR VFR VFR VFR VFR
WX -TSRA VCSH VCSH
  [BR]  
VCSH
  [BR]  
VCSH
  [BR]  
VCSH -- -- -- -- -- -- -- --
WDir 210 VRB VRB
[VRB]
VRB
[VRB]
VRB
[VRB]
VRB 340 340 360 360 360 360 360 360
WSpd 5 3 3
  [3]  
3
  [3]  
3
  [3]  
3 4 4 8 8 8 8 8 8
WGst -- -- --
  [--]  
--
  [--]  
--
  [--]  
-- -- -- 16 16 16 16 16 16
WSHgt -- -- --
[--]
--
[--]
--
[--]
-- -- -- -- -- -- -- -- --
WSDir -- -- --
[--]
--
[--]
--
[--]
-- -- -- -- -- -- -- -- --
WSSpd -- -- --
[--]
--
[--]
--
[--]
-- -- -- -- -- -- -- -- --
Raw TAF
KBWI 030524Z 0306/0412 VRB03KT P6SM VCSH SCT025 BKN050 BKN130
  TEMPO 0307/0310 5SM BR
  FM031100 34004KT P6SM SCT050 BKN130
  FM031300 36008G16KT P6SM SCT050 BKN080
  FM032000 33008G16KT P6SM FEW050 SCT250
  FM040100 VRB03KT P6SM FEW250


Raw METAR
KBWI 030454Z COR 21005KT 6SM -TSRA FEW040CB SCT100 SCT120 BKN140 OVC250 23/21 A2997 RMK AO2 LTG DSNT SE-SW RAB27 TSB13 SLP147 CONS LTGICCCCG SE-SW TS SE-SW MOV E P0001 T02280206 403440228 $
KBWI 030414Z 00000KT 10SM TS FEW040CB SCT090 SCT120 BKN140 BKN170 BKN250 24/22 A2996 RMK AO2 LTG DSNT SE-W TSB13 CONS LTGICCC DSNT E-SE AND S-SW TS S-SW MOV E CB DSNT E-SE MOV E T02390217 $
KBWI 030354Z 00000KT 10SM FEW040 FEW070 SCT090 BKN140 BKN170 BKN250 24/21 A2995 RMK AO2 LTG DSNT SE-W SLP141 CONS LTGICCC DSNT E-S AND DSNT SW-W CB DSNT E-S AND DSNT SW-W MOV E T02390211 $
KBWI 030254Z 00000KT 10SM FEW040 FEW090 SCT150 BKN220 23/22 A2995 RMK AO2 LTG DSNT SE AND W RAE37 SLP141 FRQ LTGIC DSNT SE AND DSNT W CB DSNT SE AND DSNT W MOV SE P0000 60001 T02330217 50018 $

METAR Board
Radar Display
Forecast Discussion
For situational awareness. Not to be used for flight planning purposes.